Clifton, Texas
Current Conditions -  °F | °C
As of 10:51 PM on Saturday 25 Oct 2014 (Local Time) from KACT Reporting Station
Clear Clear  
Wind Chill: 70°   Ceiling: Unl
Heat Index: 70°   Visibility: 10mi
Dew Point: 62°   Wind: 7mph
Humidity: 76%   Direction: 180°S
Pressure: 30.08"   Gusts: NA
Location:  31.78°N, 97.58°W
Report Text: KACT 260351Z 18006KT 10SM CLR 21/17 A3008 RMK AO2 SLP178 T02110167
Loading
Personal Weather Stations






























Interactive Weather Map
Tropical Storm Tracking
New forecast layout! Learn more

10-Day Weather Forecast

Advertisements
Track Severe Weather on mobile